Time;durP1;ratioP1;P1;durP2;ratioP2;P2;SDS_P1;SDS_P2;PMS_P1;PMS_P2;Temp;Humidity;BMP_temperature;BMP_pressure;BME280_temperature;BME280_humidity;BME280_pressure;Samples;Min_cycle;Max_cycle;Signal;HPM_P1;HPM_P2
2021/01/09 00:01:02;;;;;;;;;;;;;;;0.87;71.23;98113.41;1806607;79;22042;-88
2021/01/09 00:03:49;;;;;;;;;;;;;;;0.84;71.22;98111.77;1803804;79;26959;-89
2021/01/09 00:06:35;;;;;;;;;;;;;;;0.84;71.24;98116.48;1803324;79;24652;-89
2021/01/09 00:09:23;;;;;;;;;;;;;;;0.86;71.22;98116.44;1802643;79;20364;-89
2021/01/09 00:12:09;;;;;;;;;;;;;;;0.86;71.21;98116.44;1806603;79;25498;-88
2021/01/09 00:14:59;;;;;;;;;;;;;;;0.88;71.21;98117.64;1809130;79;22196;-89
2021/01/09 00:17:45;;;;;;;;;;;;;;;0.87;71.20;98116.84;1802917;79;26352;-89
2021/01/09 00:20:31;;;;;;;;;;;;;;;0.92;71.18;98111.51;1803043;79;24994;-89
2021/01/09 00:23:17;;;;;;;;;;;;;;;0.99;71.19;98112.95;1800607;79;20332;-88
2021/01/09 00:26:04;;;;;;;;;;;;;;;1.02;71.21;98108.98;1805728;79;24441;-89
2021/01/09 00:28:50;;;;;;;;;;;;;;;1.03;71.21;98106.36;1805013;78;22097;-89
2021/01/09 00:31:36;;;;;;;;;;;;;;;1.05;71.24;98107.12;1800319;79;26110;-88
2021/01/09 00:34:24;;;;;;;;;;;;;;;1.03;71.22;98106.36;1795148;79;24578;-89
2021/01/09 00:37:12;;;;;;;;;;;;;;;0.97;71.20;98106.58;1795781;79;20202;-89
2021/01/09 00:39:58;;;;;;;;;;;;;;;0.92;71.16;98103.34;1791888;79;24478;-88
2021/01/09 00:42:48;;;;;;;;;;;;;;;0.92;71.14;98105.91;1796554;79;22155;-88
2021/01/09 00:45:34;;;;;;;;;;;;;;;0.94;71.13;98109.70;1799529;79;26185;-89
2021/01/09 00:48:21;;;;;;;;;;;;;;;0.99;71.11;98108.63;1791641;79;24667;-88
2021/01/09 00:51:07;;;;;;;;;;;;;;;0.97;71.12;98114.31;1795435;79;20280;-89
2021/01/09 00:53:53;;;;;;;;;;;;;;;0.93;71.12;98120.92;1796257;79;24525;-88
2021/01/09 00:56:39;;;;;;;;;;;;;;;0.90;71.09;98120.57;1802504;79;22155;-89
2021/01/09 00:59:25;;;;;;;;;;;;;;;0.88;71.09;98119.77;1792476;79;26165;-88
2021/01/09 01:02:11;;;;;;;;;;;;;;;0.87;71.07;98115.99;1792074;79;25694;-89
2021/01/09 01:04:57;;;;;;;;;;;;;;;0.84;71.05;98123.37;1799974;78;20178;-88
2021/01/09 01:07:43;;;;;;;;;;;;;;;0.81;71.07;98119.63;1795384;79;25313;-89
2021/01/09 01:10:30;;;;;;;;;;;;;;;0.76;71.04;98124.11;1791789;79;22206;-89
2021/01/09 01:13:16;;;;;;;;;;;;;;;0.75;71.03;98118.55;1799924;79;25533;-89
2021/01/09 01:16:02;;;;;;;;;;;;;;;0.72;71.03;98118.64;1790507;79;24681;-86
2021/01/09 01:18:49;;;;;;;;;;;;;;;0.69;71.02;98113.62;1800641;79;20409;-88
2021/01/09 01:21:28;;;;;;;;;;;;;;;0.65;71.02;98122.36;1795879;79;24537;-88
2021/01/09 01:24:15;;;;;;;;;;;;;;;0.62;71.02;98123.28;1793729;79;22193;-88
2021/01/09 01:27:01;;;;;;;;;;;;;;;0.60;71.01;98119.91;1795822;79;26256;-89
2021/01/09 01:29:47;;;;;;;;;;;;;;;0.59;71.01;98122.12;1796156;79;24633;-88
2021/01/09 01:32:33;;;;;;;;;;;;;;;0.62;71.03;98127.15;1795642;79;20159;-89
2021/01/09 01:35:19;;;;;;;;;;;;;;;0.64;71.04;98118.09;1794300;79;25422;-88
2021/01/09 01:38:07;;;;;;;;;;;;;;;0.64;71.06;98120.67;1801064;79;22182;-88
2021/01/09 01:40:53;;;;;;;;;;;;;;;0.67;71.09;98124.41;1797209;79;26174;-88
2021/01/09 01:43:39;;;;;;;;;;;;;;;0.71;71.11;98127.30;1799191;79;24621;-89
2021/01/09 01:46:28;;;;;;;;;;;;;;;0.73;71.14;98126.33;1791385;79;20394;-88
2021/01/09 01:49:16;;;;;;;;;;;;;;;0.75;71.16;98128.86;1792393;79;24486;-88
2021/01/09 01:52:05;;;;;;;;;;;;;;;0.76;71.19;98127.97;1790834;79;22297;-88
2021/01/09 01:54:52;;;;;;;;;;;;;;;0.78;71.21;98123.58;1801006;79;26086;-88
2021/01/09 01:57:38;;;;;;;;;;;;;;;0.81;71.22;98129.93;1796485;79;25583;-88
2021/01/09 02:00:24;;;;;;;;;;;;;;;0.82;71.25;98125.98;1799911;79;20297;-88
2021/01/09 02:03:18;;;;;;;;;;;;;;;0.84;71.26;98127.23;1801571;79;24471;-87
2021/01/09 02:06:04;;;;;;;;;;;;;;;0.85;71.26;98128.91;1802139;79;22191;-88
2021/01/09 02:08:51;;;;;;;;;;;;;;;0.85;71.28;98128.91;1795130;79;26254;-88
2021/01/09 02:11:37;;;;;;;;;;;;;;;0.84;71.28;98119.50;1791410;79;24619;-88
2021/01/09 02:14:24;;;;;;;;;;;;;;;0.85;71.29;98121.19;1793045;79;20266;-87
2021/01/09 02:17:10;;;;;;;;;;;;;;;0.82;71.31;98114.84;1790912;79;24487;-87
2021/01/09 02:19:57;;;;;;;;;;;;;;;0.81;71.32;98123.05;1792920;79;22158;-87
2021/01/09 02:22:43;;;;;;;;;;;;;;;0.81;71.30;98120.91;1792929;79;26264;-87
2021/01/09 02:25:30;;;;;;;;;;;;;;;0.78;71.33;98118.43;1798701;79;24613;-87
2021/01/09 02:28:15;;;;;;;;;;;;;;;0.80;71.32;98123.09;1793525;79;20184;-87
2021/01/09 02:31:02;;;;;;;;;;;;;;;0.81;71.33;98124.78;1799015;79;24516;-87
2021/01/09 02:33:48;;;;;;;;;;;;;;;0.81;71.33;98122.20;1794221;79;22196;-87
2021/01/09 02:36:35;;;;;;;;;;;;;;;0.80;71.35;98119.23;1795074;79;27031;-87
2021/01/09 02:39:21;;;;;;;;;;;;;;;0.79;71.35;98120.95;1797193;79;24580;-86
2021/01/09 02:42:07;;;;;;;;;;;;;;;0.78;71.36;98120.56;1795077;79;20266;-87
2021/01/09 02:44:53;;;;;;;;;;;;;;;0.75;71.36;98124.55;1794749;79;24471;-87
2021/01/09 02:47:39;;;;;;;;;;;;;;;0.76;71.36;98124.91;1803801;79;22268;-87
2021/01/09 02:50:26;;;;;;;;;;;;;;;0.75;71.35;98127.13;1795566;79;26282;-88
2021/01/09 02:53:12;;;;;;;;;;;;;;;0.77;71.35;98130.91;1785706;79;25481;-87
2021/01/09 02:55:58;;;;;;;;;;;;;;;0.77;71.38;98132.20;1795440;79;20340;-87
2021/01/09 02:58:44;;;;;;;;;;;;;;;0.77;71.38;98132.20;1794193;79;24545;-87
2021/01/09 03:01:30;;;;;;;;;;;;;;;0.77;71.37;98137.34;1797882;79;22396;-87
2021/01/09 03:04:17;;;;;;;;;;;;;;;0.76;71.39;98128.78;1783627;79;27034;-88
2021/01/09 03:07:03;;;;;;;;;;;;;;;0.75;71.40;98134.00;1788597;79;24655;-87
2021/01/09 03:09:49;;;;;;;;;;;;;;;0.74;71.38;98131.03;1792197;79;20506;-87
2021/01/09 03:12:38;;;;;;;;;;;;;;;0.71;71.40;98129.39;1789487;79;24407;-87
2021/01/09 03:15:24;;;;;;;;;;;;;;;0.70;71.39;98129.02;1796117;79;22158;-87
2021/01/09 03:18:11;;;;;;;;;;;;;;;0.69;71.38;98127.34;1794590;79;26234;-88
2021/01/09 03:20:58;;;;;;;;;;;;;;;0.69;71.39;98129.06;1794938;79;24583;-88
2021/01/09 03:23:45;;;;;;;;;;;;;;;0.66;71.40;98127.88;1790544;79;20494;-88
2021/01/09 03:26:31;;;;;;;;;;;;;;;0.62;71.40;98122.00;1794762;79;24663;-88
2021/01/09 03:29:16;;;;;;;;;;;;;;;0.62;71.40;98127.59;1797744;79;22217;-88
2021/01/09 03:32:03;;;;;;;;;;;;;;;0.61;71.40;98131.05;1795138;79;26253;-88
2021/01/09 03:34:49;;;;;;;;;;;;;;;0.62;71.42;98123.28;1786125;79;25577;-88
2021/01/09 03:37:36;;;;;;;;;;;;;;;0.60;71.44;98122.48;1799617;79;20289;-88
2021/01/09 03:40:22;;;;;;;;;;;;;;;0.61;71.45;98130.61;1798054;79;24548;-88
2021/01/09 03:43:08;;;;;;;;;;;;;;;0.60;71.45;98127.64;1800056;79;22847;-88
2021/01/09 03:45:54;;;;;;;;;;;;;;;0.62;71.48;98132.74;1799755;79;26292;-88
2021/01/09 03:48:40;;;;;;;;;;;;;;;0.64;71.48;98132.25;1795353;79;24646;-88
2021/01/09 03:51:26;;;;;;;;;;;;;;;0.65;71.50;98133.50;1793588;79;20450;-88
2021/01/09 03:54:12;;;;;;;;;;;;;;;0.64;71.53;98135.67;1797289;79;24437;-88
2021/01/09 03:56:59;;;;;;;;;;;;;;;0.63;71.53;98135.72;1784724;79;22171;-87
2021/01/09 03:59:45;;;;;;;;;;;;;;;0.62;71.55;98139.18;1790793;79;26124;-88
2021/01/09 04:02:30;;;;;;;;;;;;;;;0.61;71.56;98146.50;1794514;79;24667;-88
2021/01/09 04:05:16;;;;;;;;;;;;;;;0.60;71.58;98143.56;1797487;78;20220;-88
2021/01/09 04:08:02;;;;;;;;;;;;;;;0.62;71.59;98143.04;1795071;79;24770;-88
2021/01/09 04:10:49;;;;;;;;;;;;;;;0.63;71.60;98151.16;1792819;79;22970;-88
2021/01/09 04:13:35;;;;;;;;;;;;;;;0.62;71.61;98148.19;1798289;79;26114;-88
2021/01/09 04:16:21;;;;;;;;;;;;;;;0.63;71.62;98144.73;1792752;79;24560;-88
2021/01/09 04:19:07;;;;;;;;;;;;;;;0.63;71.62;98150.72;1795753;79;20258;-88
2021/01/09 04:21:53;;;;;;;;;;;;;;;0.67;71.62;98146.30;1795583;79;25695;-89
2021/01/09 04:24:39;;;;;;;;;;;;;;;0.68;71.66;98155.70;1801677;79;22125;-88
2021/01/09 04:27:25;;;;;;;;;;;;;;;0.64;71.65;98151.13;1791214;79;26105;-88
2021/01/09 04:30:11;;;;;;;;;;;;;;;0.62;71.67;98150.32;1801527;79;24623;-88
2021/01/09 04:32:57;;;;;;;;;;;;;;;0.61;71.67;98161.51;1794095;79;20388;-88
2021/01/09 04:35:44;;;;;;;;;;;;;;;0.60;71.67;98157.72;1793075;79;24745;-88
2021/01/09 04:38:33;;;;;;;;;;;;;;;0.62;71.67;98163.64;1793131;79;22161;-87
2021/01/09 04:41:24;;;;;;;;;;;;;;;0.67;71.68;98161.74;1800023;79;26188;-86
2021/01/09 04:44:09;;;;;;;;;;;;;;;0.69;71.70;98162.55;1793192;79;25528;-86
2021/01/09 04:46:57;;;;;;;;;;;;;;;0.70;71.73;98167.65;1794949;79;20596;-87
2021/01/09 04:49:44;;;;;;;;;;;;;;;0.70;71.74;98175.82;1794158;79;25075;-87
2021/01/09 04:52:18;;;;;;;;;;;;;;;0.73;71.74;98171.84;1801485;79;22086;-87
2021/01/09 04:55:05;;;;;;;;;;;;;;;0.75;71.77;98168.33;1794878;79;27184;-87
2021/01/09 04:57:51;;;;;;;;;;;;;;;0.81;71.80;98177.13;1789209;79;24627;-87
2021/01/09 05:00:37;;;;;;;;;;;;;;;0.83;71.80;98179.19;1792333;79;20285;-87
2021/01/09 05:03:23;;;;;;;;;;;;;;;0.83;71.80;98180.92;1791122;79;24696;-87
2021/01/09 05:06:10;;;;;;;;;;;;;;;0.84;71.82;98185.19;1786970;79;22327;-87
2021/01/09 05:08:56;;;;;;;;;;;;;;;0.87;71.84;98185.09;1794337;79;26083;-87
2021/01/09 05:11:42;;;;;;;;;;;;;;;0.85;71.85;98190.73;1794208;79;24849;-87
2021/01/09 05:14:28;;;;;;;;;;;;;;;0.83;71.84;98188.64;1792808;79;20262;-87
2021/01/09 05:17:14;;;;;;;;;;;;;;;0.82;71.83;98186.95;1800743;79;25599;-87
2021/01/09 05:20:00;;;;;;;;;;;;;;;0.80;71.82;98186.19;1789380;79;22839;-87
2021/01/09 05:22:50;;;;;;;;;;;;;;;0.77;71.82;98192.27;1795597;79;26100;-87
2021/01/09 05:25:36;;;;;;;;;;;;;;;0.76;71.82;98193.64;1793927;79;24626;-89
2021/01/09 05:28:27;;;;;;;;;;;;;;;0.73;71.81;98198.44;1788088;79;20405;-87
2021/01/09 05:31:13;;;;;;;;;;;;;;;0.70;71.81;98196.42;1794693;79;24702;-87
2021/01/09 05:33:59;;;;;;;;;;;;;;;0.68;71.79;98205.92;1789918;79;22128;-88
2021/01/09 05:36:46;;;;;;;;;;;;;;;0.68;71.80;98204.63;1796848;79;26119;-88
2021/01/09 05:39:31;;;;;;;;;;;;;;;0.67;71.78;98205.08;1791136;79;24486;-88
2021/01/09 05:42:19;;;;;;;;;;;;;;;0.69;71.81;98206.32;1789300;79;20528;-88
2021/01/09 05:45:05;;;;;;;;;;;;;;;0.70;71.82;98208.85;1793600;79;24660;-88
2021/01/09 05:47:52;;;;;;;;;;;;;;;0.70;71.83;98215.29;1789791;79;23097;-88
2021/01/09 05:50:41;;;;;;;;;;;;;;;0.71;71.83;98214.84;1798618;79;26105;-88
2021/01/09 05:53:26;;;;;;;;;;;;;;;0.74;71.85;98218.59;1790444;79;24696;-88
2021/01/09 05:56:12;;;;;;;;;;;;;;;0.78;71.87;98231.31;1800399;79;20174;-88
2021/01/09 05:59:00;;;;;;;;;;;;;;;0.80;71.89;98236.41;1802689;78;25524;-88
2021/01/09 06:01:46;;;;;;;;;;;;;;;0.78;71.90;98242.89;1797166;79;22208;-88
2021/01/09 06:04:33;;;;;;;;;;;;;;;0.77;71.91;98243.78;1795955;79;26188;-87
2021/01/09 06:07:20;;;;;;;;;;;;;;;0.80;71.92;98245.43;1797116;79;24587;-87
2021/01/09 06:10:10;;;;;;;;;;;;;;;0.82;71.95;98248.77;1790209;79;20596;-88
2021/01/09 06:12:56;;;;;;;;;;;;;;;0.79;71.96;98249.73;1791547;79;24662;-87
2021/01/09 06:15:43;;;;;;;;;;;;;;;0.80;71.98;98257.02;1798913;78;22148;-87
2021/01/09 06:18:30;;;;;;;;;;;;;;;0.80;71.98;98260.44;1789522;79;26121;-87
2021/01/09 06:21:15;;;;;;;;;;;;;;;0.78;72.00;98259.64;1795284;79;25131;-87
2021/01/09 06:24:02;;;;;;;;;;;;;;;0.79;71.99;98260.48;1797028;79;20269;-88
2021/01/09 06:26:48;;;;;;;;;;;;;;;0.77;72.00;98264.39;1793103;79;24896;-87
2021/01/09 06:29:34;;;;;;;;;;;;;;;0.76;72.00;98268.33;1775809;79;21750;-87
2021/01/09 06:32:21;;;;;;;;;;;;;;;0.75;72.01;98274.36;1795572;79;26091;-87
2021/01/09 06:35:07;;;;;;;;;;;;;;;0.76;72.02;98276.86;1805756;79;24611;-87
2021/01/09 06:37:54;;;;;;;;;;;;;;;0.76;72.05;98285.06;1808422;79;20273;-87
2021/01/09 06:40:40;;;;;;;;;;;;;;;0.75;72.03;98282.09;1800491;79;24709;-87
2021/01/09 06:43:26;;;;;;;;;;;;;;;0.74;72.05;98286.39;1792683;79;22321;-87
2021/01/09 06:46:13;;;;;;;;;;;;;;;0.75;72.08;98285.51;1808742;79;26127;-87
2021/01/09 06:49:00;;;;;;;;;;;;;;;0.76;72.09;98294.08;1804433;79;24837;-87
2021/01/09 06:51:46;;;;;;;;;;;;;;;0.74;72.10;98296.70;1795832;79;20341;-87
2021/01/09 06:54:32;;;;;;;;;;;;;;;0.74;72.10;98292.84;1806354;79;24856;-87
2021/01/09 06:57:19;;;;;;;;;;;;;;;0.77;72.12;98297.88;1807315;79;22196;-87
2021/01/09 07:00:06;;;;;;;;;;;;;;;0.77;72.17;98296.58;1806919;79;26117;-87
2021/01/09 07:02:52;;;;;;;;;;;;;;;0.76;72.16;98297.94;1803826;79;25418;-86
2021/01/09 07:05:39;;;;;;;;;;;;;;;0.75;72.16;98301.41;1800573;79;20352;-87
2021/01/09 07:08:25;;;;;;;;;;;;;;;0.72;72.18;98301.48;1804103;79;24741;-87
2021/01/09 07:11:14;;;;;;;;;;;;;;;0.71;72.18;98309.66;1800544;79;22210;-88
2021/01/09 07:14:00;;;;;;;;;;;;;;;0.72;72.20;98307.92;1795504;79;27202;-88
2021/01/09 07:16:47;;;;;;;;;;;;;;;0.68;72.20;98316.65;1807463;79;24583;-87
2021/01/09 07:19:34;;;;;;;;;;;;;;;0.67;72.23;98316.25;1797902;79;20261;-86
2021/01/09 07:22:21;;;;;;;;;;;;;;;0.65;72.23;98318.89;1804353;79;24681;-87
2021/01/09 07:25:07;;;;;;;;;;;;;;;0.65;72.26;98322.76;1802568;78;22170;-87
2021/01/09 07:27:53;;;;;;;;;;;;;;;0.64;72.26;98323.64;1803063;79;27647;-87
2021/01/09 07:30:39;;;;;;;;;;;;;;;0.64;72.29;98324.08;1804933;77;25710;-88
2021/01/09 07:33:26;;;;;;;;;;;;;;;0.61;72.32;98327.58;1801147;79;20384;-87
2021/01/09 07:36:12;;;;;;;;;;;;;;;0.58;72.33;98328.98;1805327;78;25584;-87
2021/01/09 07:39:00;;;;;;;;;;;;;;;0.56;72.35;98324.76;1798081;79;22216;-87
2021/01/09 07:41:45;;;;;;;;;;;;;;;0.56;72.37;98329.47;1802193;79;26284;-87
2021/01/09 07:44:34;;;;;;;;;;;;;;;0.56;72.40;98335.05;1801880;79;24617;-87
2021/01/09 07:47:22;;;;;;;;;;;;;;;0.54;72.43;98333.84;1799160;79;20290;-86
2021/01/09 07:50:08;;;;;;;;;;;;;;;0.56;72.45;98341.05;1804515;79;24783;-88
2021/01/09 07:52:56;;;;;;;;;;;;;;;0.59;72.49;98342.70;1800768;79;22153;-87
2021/01/09 07:55:43;;;;;;;;;;;;;;;0.63;72.54;98344.28;1799745;79;26052;-87
2021/01/09 07:58:29;;;;;;;;;;;;;;;0.63;72.58;98351.56;1801338;79;25061;-87
2021/01/09 08:01:16;;;;;;;;;;;;;;;0.64;72.62;98351.97;1798331;79;20570;-87
2021/01/09 08:04:02;;;;;;;;;;;;;;;0.67;72.65;98349.72;1801048;79;24692;-86
2021/01/09 08:06:49;;;;;;;;;;;;;;;0.70;72.70;98354.80;1798876;79;22945;-87
2021/01/09 08:09:35;;;;;;;;;;;;;;;0.72;72.72;98350.42;1803650;79;26112;-87
2021/01/09 08:12:21;;;;;;;;;;;;;;;0.72;72.75;98356.86;1797786;79;24601;-87
2021/01/09 08:15:07;;;;;;;;;;;;;;;0.74;72.78;98353.80;1803981;79;20521;-87
2021/01/09 08:17:53;;;;;;;;;;;;;;;0.75;72.84;98360.20;1802240;79;24901;-88
2021/01/09 08:20:40;;;;;;;;;;;;;;;0.77;72.87;98354.53;1796269;79;22172;-87
2021/01/09 08:23:26;;;;;;;;;;;;;;;0.83;72.90;98365.09;1804563;78;26106;-87
2021/01/09 08:26:12;;;;;;;;;;;;;;;0.85;72.95;98362.02;1799975;79;24634;-88
2021/01/09 08:28:58;;;;;;;;;;;;;;;0.86;72.96;98365.00;1802530;79;20273;-87
2021/01/09 08:31:45;;;;;;;;;;;;;;;0.89;73.01;98362.76;1804161;79;25429;-87
2021/01/09 08:34:34;;;;;;;;;;;;;;;0.92;73.02;98368.67;1803000;79;21386;-87
2021/01/09 08:37:21;;;;;;;;;;;;;;;0.99;73.06;98374.44;1802172;79;26344;-87
2021/01/09 08:40:07;;;;;;;;;;;;;;;1.04;73.09;98373.41;1802473;79;24798;-88
2021/01/09 08:42:53;;;;;;;;;;;;;;;1.12;73.12;98380.45;1802899;79;20294;-88
2021/01/09 08:45:39;;;;;;;;;;;;;;;1.19;73.17;98380.66;1799206;79;24705;-87
2021/01/09 08:48:27;;;;;;;;;;;;;;;1.29;73.21;98385.49;1802823;79;22107;-87
2021/01/09 08:51:13;;;;;;;;;;;;;;;1.39;73.23;98385.13;1802020;79;26115;-88
2021/01/09 08:53:59;;;;;;;;;;;;;;;1.49;73.27;98383.07;1800840;79;24683;-88
2021/01/09 08:56:46;;;;;;;;;;;;;;;1.56;73.29;98385.40;1799992;79;20333;-87
2021/01/09 08:59:32;;;;;;;;;;;;;;;1.61;73.31;98391.68;1804790;79;25669;-89
2021/01/09 09:02:18;;;;;;;;;;;;;;;1.64;73.34;98393.70;1801634;79;22360;-89
2021/01/09 09:05:04;;;;;;;;;;;;;;;1.65;73.34;98390.67;1802110;79;27093;-87
2021/01/09 09:07:50;;;;;;;;;;;;;;;1.67;73.35;98395.34;1799281;79;25593;-88
2021/01/09 09:10:36;;;;;;;;;;;;;;;1.68;73.33;98400.45;1766016;81;20272;-88
2021/01/09 09:13:22;;;;;;;;;;;;;;;1.68;73.31;98396.59;1736265;82;24749;-87
2021/01/09 09:16:08;;;;;;;;;;;;;;;1.69;73.27;98398.72;1766282;80;22159;-88
2021/01/09 09:18:54;;;;;;;;;;;;;;;1.77;73.29;98399.72;1798210;79;26082;-87
2021/01/09 09:21:40;;;;;;;;;;;;;;;1.82;73.26;98399.95;1802877;79;24722;-87
2021/01/09 09:24:30;;;;;;;;;;;;;;;1.82;73.26;98393.95;1805808;79;20498;-87
2021/01/09 09:27:16;;;;;;;;;;;;;;;1.82;73.25;98396.53;1800290;79;25793;-87
2021/01/09 09:30:02;;;;;;;;;;;;;;;1.81;73.23;98387.95;1793992;79;22209;-87
2021/01/09 09:32:49;;;;;;;;;;;;;;;1.77;73.18;98388.96;1801446;78;26204;-87
2021/01/09 09:35:35;;;;;;;;;;;;;;;1.77;73.16;98385.53;1795659;79;24679;-87
2021/01/09 09:38:21;;;;;;;;;;;;;;;1.78;73.13;98384.64;1801445;79;20382;-86
2021/01/09 09:41:07;;;;;;;;;;;;;;;1.76;73.11;98385.13;1796307;79;24547;-86
2021/01/09 09:43:53;;;;;;;;;;;;;;;1.75;73.09;98383.00;1788994;79;22213;-86
2021/01/09 09:46:39;;;;;;;;;;;;;;;1.75;73.07;98386.88;1791070;79;26316;-86
2021/01/09 09:49:26;;;;;;;;;;;;;;;1.74;73.08;98386.95;1793660;79;24671;-86
2021/01/09 09:52:11;;;;;;;;;;;;;;;1.74;73.08;98387.79;1796489;79;20387;-86
2021/01/09 09:55:01;;;;;;;;;;;;;;;1.73;73.04;98385.26;1796570;79;25479;-86
2021/01/09 09:57:51;;;;;;;;;;;;;;;1.72;73.04;98393.44;1799237;79;23269;-86
2021/01/09 10:00:41;;;;;;;;;;;;;;;1.70;73.02;98391.35;1801177;78;26724;-86
2021/01/09 10:03:27;;;;;;;;;;;;;;;1.75;73.04;98398.48;1793648;79;24668;-88
2021/01/09 10:06:14;;;;;;;;;;;;;;;1.73;73.03;98396.87;1791341;79;20320;-86
2021/01/09 10:09:00;;;;;;;;;;;;;;;1.67;73.03;98396.63;1790550;79;24611;-87
2021/01/09 10:11:47;;;;;;;;;;;;;;;1.64;73.03;98394.14;1788151;79;23169;-87
2021/01/09 10:14:37;;;;;;;;;;;;;;;1.58;73.00;98389.22;1797023;79;26275;-87
2021/01/09 10:17:24;;;;;;;;;;;;;;;1.57;72.96;98384.51;1794937;79;24620;-87
2021/01/09 10:20:10;;;;;;;;;;;;;;;1.59;72.97;98385.72;1793691;79;20405;-87
2021/01/09 10:22:56;;;;;;;;;;;;;;;1.60;72.96;98386.13;1791312;79;24813;-87
2021/01/09 10:25:43;;;;;;;;;;;;;;;1.59;72.97;98391.73;1795104;79;22299;-86
2021/01/09 10:28:29;;;;;;;;;;;;;;;1.57;72.97;98385.80;1799453;79;27264;-87
2021/01/09 10:31:15;;;;;;;;;;;;;;;1.54;72.96;98388.47;1796673;79;24836;-87
2021/01/09 10:34:01;;;;;;;;;;;;;;;1.51;72.94;98388.59;1799701;79;20262;-86
2021/01/09 10:36:47;;;;;;;;;;;;;;;1.47;72.93;98382.30;1800182;79;24703;-87
2021/01/09 10:39:34;;;;;;;;;;;;;;;1.44;72.91;98381.95;1808765;78;22090;-86
2021/01/09 10:42:20;;;;;;;;;;;;;;;1.40;72.89;98386.82;1799051;79;27026;-87
2021/01/09 10:45:07;;;;;;;;;;;;;;;1.38;72.88;98385.17;1802879;78;24626;-87
2021/01/09 10:47:53;;;;;;;;;;;;;;;1.40;72.88;98384.24;1799359;79;20293;-86
2021/01/09 10:50:39;;;;;;;;;;;;;;;1.44;72.88;98382.39;1799506;79;25602;-87
2021/01/09 10:53:25;;;;;;;;;;;;;;;1.47;72.89;98379.72;1806790;79;22994;-87
2021/01/09 10:56:12;;;;;;;;;;;;;;;1.51;72.90;98379.56;1805029;79;26175;-87
2021/01/09 10:58:58;;;;;;;;;;;;;;;1.56;72.93;98370.37;1803002;79;24611;-86
2021/01/09 11:01:45;;;;;;;;;;;;;;;1.67;72.95;98372.13;1806435;79;20345;-87
2021/01/09 11:04:31;;;;;;;;;;;;;;;1.77;72.99;98368.33;1795136;79;24663;-85
2021/01/09 11:07:18;;;;;;;;;;;;;;;1.85;73.02;98375.35;1797642;78;22248;-86
2021/01/09 11:10:05;;;;;;;;;;;;;;;1.93;73.04;98377.20;1801290;79;26117;-86
2021/01/09 11:12:51;;;;;;;;;;;;;;;2.02;73.06;98376.84;1799850;79;25570;-86
2021/01/09 11:15:39;;;;;;;;;;;;;;;2.04;73.06;98380.23;1807474;79;20447;-86
2021/01/09 11:18:25;;;;;;;;;;;;;;;2.08;73.05;98388.24;1797715;79;24699;-86
2021/01/09 11:21:12;;;;;;;;;;;;;;;2.08;73.03;98383.08;1801039;79;22105;-86
2021/01/09 11:24:00;;;;;;;;;;;;;;;2.08;73.00;98387.40;1807662;79;26095;-86
2021/01/09 11:26:46;;;;;;;;;;;;;;;2.13;72.98;98387.26;1804451;79;24690;-86
2021/01/09 11:29:32;;;;;;;;;;;;;;;2.23;72.96;98385.57;1798482;79;20261;-87
2021/01/09 11:32:18;;;;;;;;;;;;;;;2.32;72.96;98383.08;1804715;79;24834;-86
2021/01/09 11:35:05;;;;;;;;;;;;;;;2.35;72.95;98369.59;1798903;79;22128;-86
2021/01/09 11:37:51;;;;;;;;;;;;;;;2.42;72.94;98377.95;1800444;79;26219;-86
2021/01/09 11:40:37;;;;;;;;;;;;;;;2.45;72.92;98372.24;1801086;79;24689;-87
2021/01/09 11:43:23;;;;;;;;;;;;;;;2.47;72.90;98369.58;1797673;79;20300;-87
2021/01/09 11:46:11;;;;;;;;;;;;;;;2.50;72.87;98367.73;1784097;79;25657;-87
2021/01/09 11:48:59;;;;;;;;;;;;;;;2.60;72.85;98363.50;1768075;79;22092;-86
2021/01/09 11:51:45;;;;;;;;;;;;;;;2.68;72.85;98364.02;1799947;79;26118;-86
2021/01/09 11:54:35;;;;;;;;;;;;;;;2.69;72.83;98354.93;1795879;79;24068;-86
2021/01/09 11:57:21;;;;;;;;;;;;;;;2.69;72.78;98356.67;1803647;79;20346;-86
2021/01/09 12:00:08;;;;;;;;;;;;;;;2.74;72.73;98356.03;1804462;79;24695;-87
2021/01/09 12:02:54;;;;;;;;;;;;;;;2.79;72.69;98355.40;1796570;78;22149;-86
2021/01/09 12:05:46;;;;;;;;;;;;;;;2.80;72.65;98366.97;1793433;79;26197;-85
2021/01/09 12:08:32;;;;;;;;;;;;;;;2.77;72.60;98363.23;1802013;79;24827;-86
2021/01/09 12:11:19;;;;;;;;;;;;;;;2.74;72.55;98371.09;1800797;79;20387;-86
2021/01/09 12:14:06;;;;;;;;;;;;;;;2.74;72.50;98368.95;1795768;79;24680;-85
2021/01/09 12:16:53;;;;;;;;;;;;;;;2.76;72.44;98372.33;1796224;79;22129;-86
2021/01/09 12:19:40;;;;;;;;;;;;;;;2.76;72.39;98373.17;1802373;77;26116;-87
2021/01/09 12:22:26;;;;;;;;;;;;;;;2.78;72.33;98375.22;1805166;79;24623;-86
2021/01/09 12:25:12;;;;;;;;;;;;;;;2.79;72.26;98366.58;1803971;79;20251;-86
2021/01/09 12:28:02;;;;;;;;;;;;;;;2.81;72.20;98373.83;1797104;78;24913;-86
2021/01/09 12:30:49;;;;;;;;;;;;;;;2.77;72.13;98373.56;1805101;79;22136;-86
2021/01/09 12:33:35;;;;;;;;;;;;;;;2.78;72.06;98373.93;1799736;78;27709;-86
2021/01/09 12:36:21;;;;;;;;;;;;;;;2.77;72.02;98376.16;1792313;79;24700;-87
2021/01/09 12:39:08;;;;;;;;;;;;;;;2.79;71.96;98376.06;1799009;79;20325;-87
2021/01/09 12:41:54;;;;;;;;;;;;;;;2.77;71.90;98377.45;1797983;79;25746;-87
2021/01/09 12:44:27;;;;;;;;;;;;;;;2.75;71.86;98371.48;1805399;79;21502;-86
2021/01/09 12:47:13;;;;;;;;;;;;;;;2.71;71.82;98374.25;1797491;79;26077;-86
2021/01/09 12:49:59;;;;;;;;;;;;;;;2.74;71.78;98372.38;1799353;79;24605;-86
2021/01/09 12:52:46;;;;;;;;;;;;;;;2.72;71.73;98370.77;1798891;78;20408;-86
2021/01/09 12:55:33;;;;;;;;;;;;;;;2.69;71.68;98373.45;1795041;79;24451;-86
2021/01/09 12:58:19;;;;;;;;;;;;;;;2.66;71.62;98374.89;1800957;79;22369;-86
2021/01/09 13:01:05;;;;;;;;;;;;;;;2.65;71.58;98380.95;1803015;79;26167;-86
2021/01/09 13:03:53;;;;;;;;;;;;;;;2.59;71.54;98380.73;1800095;79;24634;-86
2021/01/09 13:06:39;;;;;;;;;;;;;;;2.56;71.50;98381.31;1796688;79;20182;-86
2021/01/09 13:09:26;;;;;;;;;;;;;;;2.58;71.45;98393.25;1800556;79;24738;-86
2021/01/09 13:12:12;;;;;;;;;;;;;;;2.61;71.42;98381.98;1801163;79;22051;-86
2021/01/09 13:14:58;;;;;;;;;;;;;;;2.64;71.40;98398.19;1798235;79;26109;-86
2021/01/09 13:17:47;;;;;;;;;;;;;;;2.67;71.37;98397.24;1799825;79;24700;-86
2021/01/09 13:20:34;;;;;;;;;;;;;;;2.65;71.35;98398.58;1792857;79;20269;-86
2021/01/09 13:23:20;;;;;;;;;;;;;;;2.54;71.33;98404.61;1799801;79;24749;-86
2021/01/09 13:29:11;;;;;;;;;;;;;;;2.42;71.25;98406.36;1738637;82;26126;-86
2021/01/09 13:31:59;;;;;;;;;;;;;;;2.38;71.24;98405.64;1707140;83;24589;-87
2021/01/09 13:34:46;;;;;;;;;;;;;;;2.46;71.24;98410.05;1740433;82;20183;-87
2021/01/09 13:37:34;;;;;;;;;;;;;;;2.49;71.24;98426.75;1741380;82;24696;-87
2021/01/09 13:40:20;;;;;;;;;;;;;;;2.50;71.24;98428.88;1740441;81;22144;-87
2021/01/09 13:43:06;;;;;;;;;;;;;;;2.55;71.25;98429.99;1765550;80;26013;-87
2021/01/09 13:45:52;;;;;;;;;;;;;;;2.58;71.26;98433.30;1741318;82;25548;-87
2021/01/09 13:48:38;;;;;;;;;;;;;;;2.58;71.29;98437.17;1741487;82;20550;-87
2021/01/09 13:51:24;;;;;;;;;;;;;;;2.57;71.28;98444.52;1740969;82;24659;-87
2021/01/09 13:53:58;;;;;;;;;;;;;;;2.55;71.27;98446.78;1742766;82;22845;-87
2021/01/09 13:56:45;;;;;;;;;;;;;;;2.56;71.27;98451.91;1740756;82;26137;-87
2021/01/09 13:59:31;;;;;;;;;;;;;;;2.50;71.25;98450.84;1736769;82;24637;-87
2021/01/09 14:02:19;;;;;;;;;;;;;;;2.45;71.24;98448.43;1740439;82;20466;-87
2021/01/09 14:05:05;;;;;;;;;;;;;;;2.47;71.20;98447.91;1739509;82;25805;-87
2021/01/09 14:07:50;;;;;;;;;;;;;;;2.44;71.20;98449.32;1742630;82;22315;-87
2021/01/09 14:10:37;;;;;;;;;;;;;;;2.45;71.17;98451.45;1736772;82;26186;-87
2021/01/09 14:13:23;;;;;;;;;;;;;;;2.47;71.16;98453.52;1740767;82;25662;-87
2021/01/09 14:16:09;;;;;;;;;;;;;;;2.49;71.17;98454.31;1741761;82;20494;-87
2021/01/09 14:18:56;;;;;;;;;;;;;;;2.50;71.17;98458.59;1738010;82;24752;-87
2021/01/09 14:21:44;;;;;;;;;;;;;;;2.49;71.15;98454.31;1737151;80;22183;-88
2021/01/09 14:24:31;;;;;;;;;;;;;;;2.49;71.16;98459.03;1739186;82;26101;-88
2021/01/09 14:27:17;;;;;;;;;;;;;;;2.45;71.16;98457.92;1738809;81;24582;-88
2021/01/09 14:30:03;;;;;;;;;;;;;;;2.45;71.17;98460.50;1736390;82;20266;-88
2021/01/09 14:32:50;;;;;;;;;;;;;;;2.38;71.17;98465.48;1703377;82;24703;-87
2021/01/09 14:35:36;;;;;;;;;;;;;;;2.34;71.16;98465.21;1734930;82;21439;-88
2021/01/09 14:38:27;;;;;;;;;;;;;;;2.34;71.16;98466.05;1732734;82;26200;-87
2021/01/09 14:41:10;;;;;;;;;;;;;;;2.36;71.17;98466.83;1732615;82;24595;-88